LiveATC.Net - Listen to live air traffic control over the Internet!


ICAO: KTKI  IATA: TKI   Airport: Collin County Regional Airport at Mc Kinney
City: Dallas   State/Province: Texas
Country: United States   Continent: North America
KTKI METAR Weather: KTKI 040153Z 16007KT 10SM CLR 28/19 A2986 RMK AO2 SLP105 T02830189
KTKI Flight Activity (FlightAware)
KTKI Airport Info   (iFlightPlanner)
KTKI VFR Sectional Chart   (iFlightPlanner) 
KTKI IFR Low Chart   (iFlightPlanner) 

KTKI Gnd/Twr
Feed Status: UP   Listeners: 1
Listen in your browser - HTML5 player (in browser, HTML5)
Click here to listen with your own player (launches your MP3 player)
Archive Access: KTKI Gnd/Twr
FacilityFrequency
McKinney Ground121.875
McKinney Tower118.825

NOTICE

Unauthorized use prohibited. See LiveATC.net Terms of Service


Airport/ARTCC Code
Frequency Search
(e.g., 124.400, 128.75)
Site-wide search
 


Browse Feeds
Top 50 Feeds
Coverage Map
Bad Weather Areas

LiveATC FAQ
Offer LiveATC feed
Contact LiveATC.net
Press Inquiries

LiveATC on iPhone
LiveATC on Android

Windows Phone
Windows 8/10

LiveATC Mobile
(Mobile browser)

ATC Audio Archives
Interesting Recordings

LiveATC Forums


Home Page
About LiveATC.net
Make a Donation
Terms of Use
Privacy Policy

Canadian Air Freqs

AIRMETs/SIGMETs

FAA Airport Status
Nat'l Airspace Status
Arrival Demand Charts


Server Software By:
Icecast.org
Liquidsoap